sensor_id;sensor_type;location;lat;lon;timestamp;temperature;humidity
47382;DHT22;33128;51.580;5.170;2022-09-29T00:00:51;13.50;99.90
47382;DHT22;33128;51.580;5.170;2022-09-29T00:03:17;13.40;99.90
47382;DHT22;33128;51.580;5.170;2022-09-29T00:05:46;13.40;99.90
47382;DHT22;33128;51.580;5.170;2022-09-29T00:08:12;13.40;99.90
47382;DHT22;33128;51.580;5.170;2022-09-29T00:10:40;13.40;99.90
47382;DHT22;33128;51.580;5.170;2022-09-29T00:13:06;13.40;99.90
47382;DHT22;33128;51.580;5.170;2022-09-29T00:15:31;13.40;99.90
47382;DHT22;33128;51.580;5.170;2022-09-29T00:17:57;13.40;99.90
47382;DHT22;33128;51.580;5.170;2022-09-29T00:20:22;13.40;99.90
47382;DHT22;33128;51.580;5.170;2022-09-29T00:22:48;13.30;99.90
47382;DHT22;33128;51.580;5.170;2022-09-29T00:25:14;13.30;99.90
47382;DHT22;33128;51.580;5.170;2022-09-29T00:27:40;13.30;99.90
47382;DHT22;33128;51.580;5.170;2022-09-29T00:30:05;13.30;99.90
47382;DHT22;33128;51.580;5.170;2022-09-29T00:32:31;13.30;99.90
47382;DHT22;33128;51.580;5.170;2022-09-29T00:34:56;13.30;99.90
47382;DHT22;33128;51.580;5.170;2022-09-29T00:37:22;13.30;99.90
47382;DHT22;33128;51.580;5.170;2022-09-29T00:39:47;13.30;99.90
47382;DHT22;33128;51.580;5.170;2022-09-29T00:42:16;13.30;99.90
47382;DHT22;33128;51.580;5.170;2022-09-29T00:47:19;13.30;99.90
47382;DHT22;33128;51.580;5.170;2022-09-29T00:49:48;13.30;99.90
47382;DHT22;33128;51.580;5.170;2022-09-29T00:54:42;13.30;99.90
47382;DHT22;33128;51.580;5.170;2022-09-29T00:57:11;13.30;99.90
47382;DHT22;33128;51.580;5.170;2022-09-29T01:00:20;13.30;99.90
47382;DHT22;33128;51.580;5.170;2022-09-29T01:02:26;13.20;99.90
47382;DHT22;33128;51.580;5.170;2022-09-29T01:04:54;13.30;99.90
47382;DHT22;33128;51.580;5.170;2022-09-29T01:07:20;13.30;99.90
47382;DHT22;33128;51.580;5.170;2022-09-29T01:09:47;13.20;99.90
47382;DHT22;33128;51.580;5.170;2022-09-29T01:12:15;13.20;99.90
47382;DHT22;33128;51.580;5.170;2022-09-29T01:14:41;13.20;99.90
47382;DHT22;33128;51.580;5.170;2022-09-29T01:17:07;13.20;99.90
47382;DHT22;33128;51.580;5.170;2022-09-29T01:20:19;13.20;99.90
47382;DHT22;33128;51.580;5.170;2022-09-29T01:27:39;13.20;99.90
47382;DHT22;33128;51.580;5.170;2022-09-29T01:30:14;13.20;99.90
47382;DHT22;33128;51.580;5.170;2022-09-29T01:40:44;13.10;99.90
47382;DHT22;33128;51.580;5.170;2022-09-29T01:43:14;13.10;99.90
47382;DHT22;33128;51.580;5.170;2022-09-29T01:45:42;13.20;99.90
47382;DHT22;33128;51.580;5.170;2022-09-29T01:48:09;13.20;99.90
47382;DHT22;33128;51.580;5.170;2022-09-29T01:50:41;13.20;99.90
47382;DHT22;33128;51.580;5.170;2022-09-29T01:53:09;13.20;99.90
47382;DHT22;33128;51.580;5.170;2022-09-29T01:55:37;13.10;99.90
47382;DHT22;33128;51.580;5.170;2022-09-29T01:58:06;13.10;99.90
47382;DHT22;33128;51.580;5.170;2022-09-29T02:00:38;13.10;99.90
47382;DHT22;33128;51.580;5.170;2022-09-29T02:03:16;13.10;99.90
47382;DHT22;33128;51.580;5.170;2022-09-29T02:05:47;13.10;99.90
47382;DHT22;33128;51.580;5.170;2022-09-29T02:08:20;13.10;99.90
47382;DHT22;33128;51.580;5.170;2022-09-29T02:10:57;13.10;99.90
47382;DHT22;33128;51.580;5.170;2022-09-29T02:13:25;13.10;99.90
47382;DHT22;33128;51.580;5.170;2022-09-29T02:15:51;13.10;99.90
47382;DHT22;33128;51.580;5.170;2022-09-29T02:18:20;13.10;99.90
47382;DHT22;33128;51.580;5.170;2022-09-29T02:20:47;13.10;99.90
47382;DHT22;33128;51.580;5.170;2022-09-29T02:23:12;13.10;99.90
47382;DHT22;33128;51.580;5.170;2022-09-29T02:25:38;13.10;99.90
47382;DHT22;33128;51.580;5.170;2022-09-29T02:28:05;13.10;99.90
47382;DHT22;33128;51.580;5.170;2022-09-29T02:30:30;13.00;99.90
47382;DHT22;33128;51.580;5.170;2022-09-29T02:32:56;13.00;99.90
47382;DHT22;33128;51.580;5.170;2022-09-29T02:35:21;13.00;99.90
47382;DHT22;33128;51.580;5.170;2022-09-29T02:40:27;11.30;99.90
47382;DHT22;33128;51.580;5.170;2022-09-29T02:48:14;7.90;99.90
47382;DHT22;33128;51.580;5.170;2022-09-29T02:50:55;7.60;99.90
47382;DHT22;33128;51.580;5.170;2022-09-29T02:53:36;7.50;99.90
47382;DHT22;33128;51.580;5.170;2022-09-29T02:58:42;7.30;99.90
47382;DHT22;33128;51.580;5.170;2022-09-29T03:01:09;7.10;99.90
47382;DHT22;33128;51.580;5.170;2022-09-29T03:03:35;7.00;99.90
47382;DHT22;33128;51.580;5.170;2022-09-29T03:06:00;6.90;99.90
47382;DHT22;33128;51.580;5.170;2022-09-29T03:08:26;6.80;99.90
47382;DHT22;33128;51.580;5.170;2022-09-29T03:10:51;6.80;99.90
47382;DHT22;33128;51.580;5.170;2022-09-29T03:13:17;6.70;99.90
47382;DHT22;33128;51.580;5.170;2022-09-29T03:15:42;6.70;99.90
47382;DHT22;33128;51.580;5.170;2022-09-29T03:18:08;6.60;99.90
47382;DHT22;33128;51.580;5.170;2022-09-29T03:20:34;6.60;99.90
47382;DHT22;33128;51.580;5.170;2022-09-29T03:22:59;6.60;99.90
47382;DHT22;33128;51.580;5.170;2022-09-29T03:25:25;6.50;99.90
47382;DHT22;33128;51.580;5.170;2022-09-29T03:27:50;6.50;99.90
47382;DHT22;33128;51.580;5.170;2022-09-29T03:30:16;6.40;99.90
47382;DHT22;33128;51.580;5.170;2022-09-29T03:32:42;6.70;99.90
47382;DHT22;33128;51.580;5.170;2022-09-29T03:35:08;6.40;99.90
47382;DHT22;33128;51.580;5.170;2022-09-29T03:37:34;6.80;99.90
47382;DHT22;33128;51.580;5.170;2022-09-29T03:39:59;6.40;99.90
47382;DHT22;33128;51.580;5.170;2022-09-29T03:42:25;6.30;99.90
47382;DHT22;33128;51.580;5.170;2022-09-29T03:44:52;6.20;99.90
47382;DHT22;33128;51.580;5.170;2022-09-29T03:47:18;6.10;99.90
47382;DHT22;33128;51.580;5.170;2022-09-29T03:49:43;6.10;99.90
47382;DHT22;33128;51.580;5.170;2022-09-29T03:52:09;6.00;99.90
47382;DHT22;33128;51.580;5.170;2022-09-29T03:54:34;6.10;99.90
47382;DHT22;33128;51.580;5.170;2022-09-29T03:57:00;6.20;99.90
47382;DHT22;33128;51.580;5.170;2022-09-29T03:59:25;7.20;99.90
47382;DHT22;33128;51.580;5.170;2022-09-29T04:01:51;7.80;99.90
47382;DHT22;33128;51.580;5.170;2022-09-29T04:04:16;8.20;99.90
47382;DHT22;33128;51.580;5.170;2022-09-29T04:06:42;8.50;99.90
47382;DHT22;33128;51.580;5.170;2022-09-29T04:09:07;8.70;99.90
47382;DHT22;33128;51.580;5.170;2022-09-29T04:11:33;9.00;99.90
47382;DHT22;33128;51.580;5.170;2022-09-29T04:13:58;9.10;99.90
47382;DHT22;33128;51.580;5.170;2022-09-29T04:16:24;9.30;99.90
47382;DHT22;33128;51.580;5.170;2022-09-29T04:18:49;9.40;99.90
47382;DHT22;33128;51.580;5.170;2022-09-29T04:21:15;9.50;99.90
47382;DHT22;33128;51.580;5.170;2022-09-29T04:23:41;9.60;99.90
47382;DHT22;33128;51.580;5.170;2022-09-29T04:26:06;9.70;99.90
47382;DHT22;33128;51.580;5.170;2022-09-29T04:28:33;9.70;99.90
47382;DHT22;33128;51.580;5.170;2022-09-29T04:30:59;9.80;99.90
47382;DHT22;33128;51.580;5.170;2022-09-29T04:33:24;9.90;99.90
47382;DHT22;33128;51.580;5.170;2022-09-29T04:35:50;10.00;99.90
47382;DHT22;33128;51.580;5.170;2022-09-29T04:38:16;10.10;99.90
47382;DHT22;33128;51.580;5.170;2022-09-29T04:40:41;10.20;99.90
47382;DHT22;33128;51.580;5.170;2022-09-29T04:43:07;10.20;99.90
47382;DHT22;33128;51.580;5.170;2022-09-29T04:45:32;10.30;99.90
47382;DHT22;33128;51.580;5.170;2022-09-29T04:48:04;10.30;99.90
47382;DHT22;33128;51.580;5.170;2022-09-29T04:50:29;10.30;99.90
47382;DHT22;33128;51.580;5.170;2022-09-29T04:52:55;10.40;99.90
47382;DHT22;33128;51.580;5.170;2022-09-29T04:55:21;10.50;99.90
47382;DHT22;33128;51.580;5.170;2022-09-29T04:57:46;10.50;99.90
47382;DHT22;33128;51.580;5.170;2022-09-29T05:00:15;10.50;99.90
47382;DHT22;33128;51.580;5.170;2022-09-29T05:02:41;10.50;99.90
47382;DHT22;33128;51.580;5.170;2022-09-29T05:05:07;10.60;99.90
47382;DHT22;33128;51.580;5.170;2022-09-29T05:07:33;10.60;99.90
47382;DHT22;33128;51.580;5.170;2022-09-29T05:09:58;10.60;99.90
47382;DHT22;33128;51.580;5.170;2022-09-29T05:12:24;10.70;99.90
47382;DHT22;33128;51.580;5.170;2022-09-29T05:14:50;10.70;99.90
47382;DHT22;33128;51.580;5.170;2022-09-29T05:17:16;10.70;99.90
47382;DHT22;33128;51.580;5.170;2022-09-29T05:19:41;10.70;99.90
47382;DHT22;33128;51.580;5.170;2022-09-29T05:22:07;10.70;99.90
47382;DHT22;33128;51.580;5.170;2022-09-29T05:24:32;10.80;99.90
47382;DHT22;33128;51.580;5.170;2022-09-29T05:26:58;10.80;99.90
47382;DHT22;33128;51.580;5.170;2022-09-29T05:29:26;10.80;99.90
47382;DHT22;33128;51.580;5.170;2022-09-29T05:31:51;10.80;99.90
47382;DHT22;33128;51.580;5.170;2022-09-29T05:34:17;10.90;99.90
47382;DHT22;33128;51.580;5.170;2022-09-29T05:36:42;10.90;99.90
47382;DHT22;33128;51.580;5.170;2022-09-29T05:39:14;11.00;99.90
47382;DHT22;33128;51.580;5.170;2022-09-29T05:41:41;11.10;99.90
47382;DHT22;33128;51.580;5.170;2022-09-29T05:44:07;10.60;99.90
47382;DHT22;33128;51.580;5.170;2022-09-29T05:46:34;9.20;99.90
47382;DHT22;33128;51.580;5.170;2022-09-29T05:49:00;8.60;99.90
47382;DHT22;33128;51.580;5.170;2022-09-29T05:51:25;8.20;99.90
47382;DHT22;33128;51.580;5.170;2022-09-29T05:53:51;8.00;99.90
47382;DHT22;33128;51.580;5.170;2022-09-29T05:56:26;7.80;99.90
47382;DHT22;33128;51.580;5.170;2022-09-29T05:58:52;7.60;99.90
47382;DHT22;33128;51.580;5.170;2022-09-29T06:01:21;7.40;99.90
47382;DHT22;33128;51.580;5.170;2022-09-29T06:03:47;7.30;99.90
47382;DHT22;33128;51.580;5.170;2022-09-29T06:06:16;7.20;99.90
47382;DHT22;33128;51.580;5.170;2022-09-29T06:08:42;7.20;99.90
47382;DHT22;33128;51.580;5.170;2022-09-29T06:11:16;7.10;99.90
47382;DHT22;33128;51.580;5.170;2022-09-29T06:13:42;7.00;99.90
47382;DHT22;33128;51.580;5.170;2022-09-29T06:16:08;6.90;99.90
47382;DHT22;33128;51.580;5.170;2022-09-29T06:18:34;6.80;99.90
47382;DHT22;33128;51.580;5.170;2022-09-29T06:21:04;6.70;99.90
47382;DHT22;33128;51.580;5.170;2022-09-29T06:23:30;6.80;99.90
47382;DHT22;33128;51.580;5.170;2022-09-29T06:25:56;6.70;99.90
47382;DHT22;33128;51.580;5.170;2022-09-29T06:28:22;6.80;99.90
47382;DHT22;33128;51.580;5.170;2022-09-29T06:30:47;6.70;99.90
47382;DHT22;33128;51.580;5.170;2022-09-29T06:33:13;6.80;99.90
47382;DHT22;33128;51.580;5.170;2022-09-29T06:35:38;6.80;99.90
47382;DHT22;33128;51.580;5.170;2022-09-29T06:38:28;6.70;99.90
47382;DHT22;33128;51.580;5.170;2022-09-29T06:40:56;6.80;99.90
47382;DHT22;33128;51.580;5.170;2022-09-29T06:43:22;6.70;99.90
47382;DHT22;33128;51.580;5.170;2022-09-29T06:45:47;6.80;99.90
47382;DHT22;33128;51.580;5.170;2022-09-29T06:48:13;6.80;99.90
47382;DHT22;33128;51.580;5.170;2022-09-29T06:50:38;6.90;99.90
47382;DHT22;33128;51.580;5.170;2022-09-29T06:53:04;7.00;99.90
47382;DHT22;33128;51.580;5.170;2022-09-29T06:55:30;6.90;99.90
47382;DHT22;33128;51.580;5.170;2022-09-29T06:57:55;6.90;99.90
47382;DHT22;33128;51.580;5.170;2022-09-29T07:00:21;6.90;99.90
47382;DHT22;33128;51.580;5.170;2022-09-29T07:02:46;7.10;99.90
47382;DHT22;33128;51.580;5.170;2022-09-29T07:05:12;7.10;99.90
47382;DHT22;33128;51.580;5.170;2022-09-29T07:07:37;7.20;99.90
47382;DHT22;33128;51.580;5.170;2022-09-29T07:10:03;7.30;99.90
47382;DHT22;33128;51.580;5.170;2022-09-29T07:12:29;7.40;99.90
47382;DHT22;33128;51.580;5.170;2022-09-29T07:14:54;7.40;99.90
47382;DHT22;33128;51.580;5.170;2022-09-29T07:17:20;7.40;99.90
47382;DHT22;33128;51.580;5.170;2022-09-29T07:19:45;7.50;99.90
47382;DHT22;33128;51.580;5.170;2022-09-29T07:22:11;7.50;99.90
47382;DHT22;33128;51.580;5.170;2022-09-29T07:24:36;7.60;99.90
47382;DHT22;33128;51.580;5.170;2022-09-29T07:27:02;7.60;99.90
47382;DHT22;33128;51.580;5.170;2022-09-29T07:29:27;7.80;99.90
47382;DHT22;33128;51.580;5.170;2022-09-29T07:31:57;7.90;99.90
47382;DHT22;33128;51.580;5.170;2022-09-29T07:34:23;8.00;99.90
47382;DHT22;33128;51.580;5.170;2022-09-29T07:36:49;8.10;99.90
47382;DHT22;33128;51.580;5.170;2022-09-29T07:39:14;8.10;99.90
47382;DHT22;33128;51.580;5.170;2022-09-29T07:41:40;8.20;99.90
47382;DHT22;33128;51.580;5.170;2022-09-29T07:44:05;8.30;99.90
47382;DHT22;33128;51.580;5.170;2022-09-29T07:46:31;8.30;99.90
47382;DHT22;33128;51.580;5.170;2022-09-29T07:48:57;8.40;99.90
47382;DHT22;33128;51.580;5.170;2022-09-29T07:51:25;8.50;99.90
47382;DHT22;33128;51.580;5.170;2022-09-29T07:53:50;8.60;99.90
47382;DHT22;33128;51.580;5.170;2022-09-29T07:56:17;8.70;99.90
47382;DHT22;33128;51.580;5.170;2022-09-29T07:58:43;8.80;99.90
47382;DHT22;33128;51.580;5.170;2022-09-29T08:01:09;8.80;99.90
47382;DHT22;33128;51.580;5.170;2022-09-29T08:03:37;8.90;99.90
47382;DHT22;33128;51.580;5.170;2022-09-29T08:06:03;9.00;99.90
47382;DHT22;33128;51.580;5.170;2022-09-29T08:08:29;9.10;99.90
47382;DHT22;33128;51.580;5.170;2022-09-29T08:11:04;9.20;99.90
47382;DHT22;33128;51.580;5.170;2022-09-29T08:13:30;9.20;99.90
47382;DHT22;33128;51.580;5.170;2022-09-29T08:15:57;9.20;99.90
47382;DHT22;33128;51.580;5.170;2022-09-29T08:18:23;9.30;99.90
47382;DHT22;33128;51.580;5.170;2022-09-29T08:20:49;9.40;99.90
47382;DHT22;33128;51.580;5.170;2022-09-29T08:23:14;9.50;99.90
47382;DHT22;33128;51.580;5.170;2022-09-29T08:25:40;9.70;99.90
47382;DHT22;33128;51.580;5.170;2022-09-29T08:28:06;9.80;99.90
47382;DHT22;33128;51.580;5.170;2022-09-29T08:30:32;9.70;99.90
47382;DHT22;33128;51.580;5.170;2022-09-29T08:32:57;9.80;99.90
47382;DHT22;33128;51.580;5.170;2022-09-29T08:35:23;9.90;99.90
47382;DHT22;33128;51.580;5.170;2022-09-29T08:37:49;10.00;99.90
47382;DHT22;33128;51.580;5.170;2022-09-29T08:40:15;10.00;99.90
47382;DHT22;33128;51.580;5.170;2022-09-29T08:42:44;10.10;99.90
47382;DHT22;33128;51.580;5.170;2022-09-29T08:45:14;10.20;99.90
47382;DHT22;33128;51.580;5.170;2022-09-29T08:47:45;10.30;99.90
47382;DHT22;33128;51.580;5.170;2022-09-29T08:50:13;10.30;99.90
47382;DHT22;33128;51.580;5.170;2022-09-29T08:52:41;10.40;99.90
47382;DHT22;33128;51.580;5.170;2022-09-29T08:57:33;10.50;99.90
47382;DHT22;33128;51.580;5.170;2022-09-29T09:00:01;10.60;99.90
47382;DHT22;33128;51.580;5.170;2022-09-29T09:05:05;10.80;99.90
47382;DHT22;33128;51.580;5.170;2022-09-29T09:07:37;10.80;99.90
47382;DHT22;33128;51.580;5.170;2022-09-29T09:10:49;10.90;99.90
47382;DHT22;33128;51.580;5.170;2022-09-29T09:13:33;11.00;99.90
47382;DHT22;33128;51.580;5.170;2022-09-29T09:16:11;11.20;99.90
47382;DHT22;33128;51.580;5.170;2022-09-29T09:21:42;11.20;99.90
47382;DHT22;33128;51.580;5.170;2022-09-29T09:26:42;11.40;99.90
47382;DHT22;33128;51.580;5.170;2022-09-29T09:29:10;11.50;99.90
47382;DHT22;33128;51.580;5.170;2022-09-29T09:31:39;11.60;99.90
47382;DHT22;33128;51.580;5.170;2022-09-29T09:34:10;11.70;99.90
47382;DHT22;33128;51.580;5.170;2022-09-29T09:36:47;11.80;99.90
47382;DHT22;33128;51.580;5.170;2022-09-29T09:41:47;11.90;99.90
47382;DHT22;33128;51.580;5.170;2022-09-29T09:46:44;12.10;99.90
47382;DHT22;33128;51.580;5.170;2022-09-29T09:51:56;12.10;99.90
47382;DHT22;33128;51.580;5.170;2022-09-29T09:56:56;12.20;99.90
47382;DHT22;33128;51.580;5.170;2022-09-29T10:01:49;12.40;99.90
47382;DHT22;33128;51.580;5.170;2022-09-29T10:04:15;12.40;99.90
47382;DHT22;33128;51.580;5.170;2022-09-29T10:06:40;12.50;99.90
47382;DHT22;33128;51.580;5.170;2022-09-29T10:09:09;12.60;99.90
47382;DHT22;33128;51.580;5.170;2022-09-29T10:11:36;12.60;99.90
47382;DHT22;33128;51.580;5.170;2022-09-29T10:19:13;12.60;99.90
47382;DHT22;33128;51.580;5.170;2022-09-29T10:21:40;12.80;99.90
47382;DHT22;33128;51.580;5.170;2022-09-29T10:24:39;12.90;99.90
47382;DHT22;33128;51.580;5.170;2022-09-29T10:26:58;12.90;99.90
47382;DHT22;33128;51.580;5.170;2022-09-29T10:32:04;12.90;99.90
47382;DHT22;33128;51.580;5.170;2022-09-29T10:34:30;13.10;99.90
47382;DHT22;33128;51.580;5.170;2022-09-29T10:36:57;13.30;99.90
47382;DHT22;33128;51.580;5.170;2022-09-29T10:39:43;13.40;99.90
47382;DHT22;33128;51.580;5.170;2022-09-29T10:42:17;13.60;99.90
47382;DHT22;33128;51.580;5.170;2022-09-29T10:44:48;13.70;99.90
47382;DHT22;33128;51.580;5.170;2022-09-29T10:47:14;13.70;99.90
47382;DHT22;33128;51.580;5.170;2022-09-29T10:49:40;13.60;99.90
47382;DHT22;33128;51.580;5.170;2022-09-29T10:52:26;13.50;99.90
47382;DHT22;33128;51.580;5.170;2022-09-29T10:54:56;13.40;99.90
47382;DHT22;33128;51.580;5.170;2022-09-29T10:57:26;13.60;99.90
47382;DHT22;33128;51.580;5.170;2022-09-29T10:59:52;13.60;99.90
47382;DHT22;33128;51.580;5.170;2022-09-29T11:02:23;13.50;99.90
47382;DHT22;33128;51.580;5.170;2022-09-29T11:04:50;13.50;99.90
47382;DHT22;33128;51.580;5.170;2022-09-29T11:07:16;13.40;99.90
47382;DHT22;33128;51.580;5.170;2022-09-29T11:09:42;13.20;99.90
47382;DHT22;33128;51.580;5.170;2022-09-29T11:14:56;13.00;99.90
47382;DHT22;33128;51.580;5.170;2022-09-29T11:19:54;13.00;99.90
47382;DHT22;33128;51.580;5.170;2022-09-29T11:30:19;14.00;99.90
47382;DHT22;33128;51.580;5.170;2022-09-29T11:35:38;14.00;99.90
47382;DHT22;33128;51.580;5.170;2022-09-29T11:45:47;13.80;99.90
47382;DHT22;33128;51.580;5.170;2022-09-29T11:53:42;13.50;99.90
47382;DHT22;33128;51.580;5.170;2022-09-29T12:06:46;14.60;99.90
47382;DHT22;33128;51.580;5.170;2022-09-29T12:17:17;14.10;99.90
47382;DHT22;33128;51.580;5.170;2022-09-29T12:19:43;14.10;99.90
47382;DHT22;33128;51.580;5.170;2022-09-29T12:22:10;14.40;99.90
47382;DHT22;33128;51.580;5.170;2022-09-29T12:24:42;14.90;99.90
47382;DHT22;33128;51.580;5.170;2022-09-29T12:27:20;15.30;99.90
47382;DHT22;33128;51.580;5.170;2022-09-29T12:32:17;15.90;99.90
47382;DHT22;33128;51.580;5.170;2022-09-29T12:35:02;16.10;99.90
47382;DHT22;33128;51.580;5.170;2022-09-29T12:37:33;16.40;99.90
47382;DHT22;33128;51.580;5.170;2022-09-29T12:45:38;16.40;99.90
47382;DHT22;33128;51.580;5.170;2022-09-29T12:48:22;16.30;99.90
47382;DHT22;33128;51.580;5.170;2022-09-29T12:58:35;16.80;99.90
47382;DHT22;33128;51.580;5.170;2022-09-29T13:01:48;16.70;99.90
47382;DHT22;33128;51.580;5.170;2022-09-29T13:11:39;16.00;99.90
47382;DHT22;33128;51.580;5.170;2022-09-29T13:29:45;16.60;99.90
47382;DHT22;33128;51.580;5.170;2022-09-29T13:32:12;16.70;99.90
47382;DHT22;33128;51.580;5.170;2022-09-29T13:34:38;16.90;99.90
47382;DHT22;33128;51.580;5.170;2022-09-29T13:37:10;17.00;99.90
47382;DHT22;33128;51.580;5.170;2022-09-29T13:39:37;16.80;99.90
47382;DHT22;33128;51.580;5.170;2022-09-29T13:42:24;16.70;99.90
47382;DHT22;33128;51.580;5.170;2022-09-29T13:47:34;16.90;99.90
47382;DHT22;33128;51.580;5.170;2022-09-29T13:50:11;16.80;99.90
47382;DHT22;33128;51.580;5.170;2022-09-29T13:52:45;16.90;99.90
47382;DHT22;33128;51.580;5.170;2022-09-29T13:57:57;17.50;99.90
47382;DHT22;33128;51.580;5.170;2022-09-29T14:00:22;17.60;99.90
47382;DHT22;33128;51.580;5.170;2022-09-29T14:02:59;17.60;99.90
47382;DHT22;33128;51.580;5.170;2022-09-29T14:13:01;18.10;99.90
47382;DHT22;33128;51.580;5.170;2022-09-29T14:15:31;18.30;99.90
47382;DHT22;33128;51.580;5.170;2022-09-29T14:17:59;18.40;99.90
47382;DHT22;33128;51.580;5.170;2022-09-29T14:20:28;18.30;99.90
47382;DHT22;33128;51.580;5.170;2022-09-29T14:22:56;18.20;99.90
47382;DHT22;33128;51.580;5.170;2022-09-29T14:25:27;18.10;99.90
47382;DHT22;33128;51.580;5.170;2022-09-29T14:32:54;17.50;99.90
47382;DHT22;33128;51.580;5.170;2022-09-29T14:35:23;17.40;99.90
47382;DHT22;33128;51.580;5.170;2022-09-29T14:38:01;17.30;99.90
47382;DHT22;33128;51.580;5.170;2022-09-29T14:40:28;17.50;99.90
47382;DHT22;33128;51.580;5.170;2022-09-29T14:45:41;17.50;99.90
47382;DHT22;33128;51.580;5.170;2022-09-29T14:48:33;17.30;99.90
47382;DHT22;33128;51.580;5.170;2022-09-29T14:51:27;17.10;99.90
47382;DHT22;33128;51.580;5.170;2022-09-29T14:56:49;16.70;99.90
47382;DHT22;33128;51.580;5.170;2022-09-29T14:59:29;16.60;99.90
47382;DHT22;33128;51.580;5.170;2022-09-29T15:02:17;16.80;99.90
47382;DHT22;33128;51.580;5.170;2022-09-29T15:04:44;17.00;99.90
47382;DHT22;33128;51.580;5.170;2022-09-29T15:07:30;17.20;99.90
47382;DHT22;33128;51.580;5.170;2022-09-29T15:10:37;17.10;99.90
47382;DHT22;33128;51.580;5.170;2022-09-29T15:13:28;16.90;99.90
47382;DHT22;33128;51.580;5.170;2022-09-29T15:21:06;16.40;99.90
47382;DHT22;33128;51.580;5.170;2022-09-29T15:26:16;16.30;99.90
47382;DHT22;33128;51.580;5.170;2022-09-29T15:28:42;16.30;99.90
47382;DHT22;33128;51.580;5.170;2022-09-29T15:31:16;16.30;99.90
47382;DHT22;33128;51.580;5.170;2022-09-29T15:33:44;16.30;99.90
47382;DHT22;33128;51.580;5.170;2022-09-29T15:36:25;16.30;99.90
47382;DHT22;33128;51.580;5.170;2022-09-29T15:41:38;16.30;99.90
47382;DHT22;33128;51.580;5.170;2022-09-29T15:44:12;16.00;99.90
47382;DHT22;33128;51.580;5.170;2022-09-29T15:47:00;16.10;99.90
47382;DHT22;33128;51.580;5.170;2022-09-29T15:49:29;15.80;99.90
47382;DHT22;33128;51.580;5.170;2022-09-29T15:54:21;15.80;99.90
47382;DHT22;33128;51.580;5.170;2022-09-29T15:56:47;15.80;99.90
47382;DHT22;33128;51.580;5.170;2022-09-29T16:02:04;15.70;99.90
47382;DHT22;33128;51.580;5.170;2022-09-29T16:04:31;15.60;99.90
47382;DHT22;33128;51.580;5.170;2022-09-29T16:06:56;15.60;99.90
47382;DHT22;33128;51.580;5.170;2022-09-29T16:09:22;15.60;99.90
47382;DHT22;33128;51.580;5.170;2022-09-29T16:11:48;15.50;99.90
47382;DHT22;33128;51.580;5.170;2022-09-29T16:14:23;15.30;99.90
47382;DHT22;33128;51.580;5.170;2022-09-29T16:16:51;15.30;99.90
47382;DHT22;33128;51.580;5.170;2022-09-29T16:19:22;15.10;99.90
47382;DHT22;33128;51.580;5.170;2022-09-29T16:21:51;15.20;99.90
47382;DHT22;33128;51.580;5.170;2022-09-29T16:24:18;15.40;99.90
47382;DHT22;33128;51.580;5.170;2022-09-29T16:26:50;15.60;99.90
47382;DHT22;33128;51.580;5.170;2022-09-29T16:31:42;15.80;99.90
47382;DHT22;33128;51.580;5.170;2022-09-29T16:39:15;15.90;99.90
47382;DHT22;33128;51.580;5.170;2022-09-29T16:41:41;16.00;99.90
47382;DHT22;33128;51.580;5.170;2022-09-29T16:46:41;16.00;99.90
47382;DHT22;33128;51.580;5.170;2022-09-29T16:49:11;16.00;99.90
47382;DHT22;33128;51.580;5.170;2022-09-29T16:51:44;16.00;99.90
47382;DHT22;33128;51.580;5.170;2022-09-29T16:54:20;16.00;99.90
47382;DHT22;33128;51.580;5.170;2022-09-29T16:56:47;16.00;99.90
47382;DHT22;33128;51.580;5.170;2022-09-29T16:59:14;16.00;99.90
47382;DHT22;33128;51.580;5.170;2022-09-29T17:01:40;15.90;99.90
47382;DHT22;33128;51.580;5.170;2022-09-29T17:04:06;15.90;99.90
47382;DHT22;33128;51.580;5.170;2022-09-29T17:06:32;15.90;99.90
47382;DHT22;33128;51.580;5.170;2022-09-29T17:08:58;15.90;99.90
47382;DHT22;33128;51.580;5.170;2022-09-29T17:11:24;15.90;99.90
47382;DHT22;33128;51.580;5.170;2022-09-29T17:13:50;15.90;99.90
47382;DHT22;33128;51.580;5.170;2022-09-29T17:16:15;15.80;99.90
47382;DHT22;33128;51.580;5.170;2022-09-29T17:18:48;15.80;99.90
47382;DHT22;33128;51.580;5.170;2022-09-29T17:21:14;15.80;99.90
47382;DHT22;33128;51.580;5.170;2022-09-29T17:23:42;15.80;99.90
47382;DHT22;33128;51.580;5.170;2022-09-29T17:26:15;15.70;99.90
47382;DHT22;33128;51.580;5.170;2022-09-29T17:29:00;15.70;99.90
47382;DHT22;33128;51.580;5.170;2022-09-29T17:31:26;15.70;99.90
47382;DHT22;33128;51.580;5.170;2022-09-29T17:33:52;15.70;99.90
47382;DHT22;33128;51.580;5.170;2022-09-29T17:36:17;15.70;99.90
47382;DHT22;33128;51.580;5.170;2022-09-29T17:38:44;15.60;99.90
47382;DHT22;33128;51.580;5.170;2022-09-29T17:41:12;15.60;99.90
47382;DHT22;33128;51.580;5.170;2022-09-29T17:43:42;15.60;99.90
47382;DHT22;33128;51.580;5.170;2022-09-29T17:46:12;15.60;99.90
47382;DHT22;33128;51.580;5.170;2022-09-29T17:48:41;15.50;99.90
47382;DHT22;33128;51.580;5.170;2022-09-29T17:51:11;15.50;99.90
47382;DHT22;33128;51.580;5.170;2022-09-29T17:53:37;15.50;99.90
47382;DHT22;33128;51.580;5.170;2022-09-29T17:56:02;15.50;99.90
47382;DHT22;33128;51.580;5.170;2022-09-29T17:58:29;15.40;99.90
47382;DHT22;33128;51.580;5.170;2022-09-29T18:00:55;15.50;99.90
47382;DHT22;33128;51.580;5.170;2022-09-29T18:03:30;15.40;99.90
47382;DHT22;33128;51.580;5.170;2022-09-29T18:06:18;15.40;99.90
47382;DHT22;33128;51.580;5.170;2022-09-29T18:08:46;15.30;99.90
47382;DHT22;33128;51.580;5.170;2022-09-29T18:11:11;15.30;99.90
47382;DHT22;33128;51.580;5.170;2022-09-29T18:13:37;15.30;99.90
47382;DHT22;33128;51.580;5.170;2022-09-29T18:16:08;15.30;99.90
47382;DHT22;33128;51.580;5.170;2022-09-29T18:18:33;15.20;99.90
47382;DHT22;33128;51.580;5.170;2022-09-29T18:21:01;15.20;99.90
47382;DHT22;33128;51.580;5.170;2022-09-29T18:23:28;15.20;99.90
47382;DHT22;33128;51.580;5.170;2022-09-29T18:25:54;15.10;99.90
47382;DHT22;33128;51.580;5.170;2022-09-29T18:28:20;15.10;99.90
47382;DHT22;33128;51.580;5.170;2022-09-29T18:30:46;15.10;99.90
47382;DHT22;33128;51.580;5.170;2022-09-29T18:33:17;15.10;99.90
47382;DHT22;33128;51.580;5.170;2022-09-29T18:35:44;15.10;99.90
47382;DHT22;33128;51.580;5.170;2022-09-29T18:38:10;15.10;99.90
47382;DHT22;33128;51.580;5.170;2022-09-29T18:40:36;15.00;99.90
47382;DHT22;33128;51.580;5.170;2022-09-29T18:43:02;15.00;99.90
47382;DHT22;33128;51.580;5.170;2022-09-29T18:45:31;15.00;99.90
47382;DHT22;33128;51.580;5.170;2022-09-29T18:47:59;14.90;99.90
47382;DHT22;33128;51.580;5.170;2022-09-29T18:50:35;14.90;99.90
47382;DHT22;33128;51.580;5.170;2022-09-29T18:53:03;14.90;99.90
47382;DHT22;33128;51.580;5.170;2022-09-29T18:55:29;14.90;99.90
47382;DHT22;33128;51.580;5.170;2022-09-29T18:58:14;14.80;99.90
47382;DHT22;33128;51.580;5.170;2022-09-29T19:00:41;14.80;99.90